KEAU/EAU METAR and TAF weather

Enter ICAO airport designator
Station Type Date Time Source
KEAU METAR 2019/12/08 13:56 UTC NOAA

KEAU 081356Z 22006KT 10SM CLR 01/M03 A2970 RMK AO2 SLP065 T00111033 $


Station Type Date Time Source
KEAU Decoded METAR 2019/12/08 13:56 UTC NOAA

EAU CLAIRE CHIPPEWA VALLEY, WI, United States (KEAU) 44-52N 091-29W
Dec 08, 2019 - 08:56 AM EST / 2019.12.08 1356 UTC
Wind: from the SW (220 degrees) at 7 MPH (6 KT):0
Visibility: 10 mile(s):0
Sky conditions: clear
Temperature: 34.0 F (1.1 C)
Windchill: 28 F (-2 C):1
Dew Point: 26.1 F (-3.3 C)
Relative Humidity: 72%
Pressure (altimeter): 29.7 in. Hg (1005 hPa)
ob: KEAU 081356Z 22006KT 10SM CLR 01/M03 A2970 RMK AO2 SLP065 T00111033
cycle: 14

Station Type Date Time Source
KEAU TAF 2019/12/08 12:27 UTC NOAA

TAF KEAU 081125Z 0812/0912 22009KT P6SM FEW250
FM081700 30004KT P6SM OVC008
FM090100 04004KT 5SM BR OVC004

Example: see airport list